sensor_id;sensor_type;location;lat;lon;timestamp;temperature;humidity
26595;DHT22;14238;49.496;8.154;2023-06-01T00:00:49;16.70;99.90
26595;DHT22;14238;49.496;8.154;2023-06-01T00:03:15;16.80;99.90
26595;DHT22;14238;49.496;8.154;2023-06-01T00:05:40;16.80;99.90
26595;DHT22;14238;49.496;8.154;2023-06-01T00:08:06;16.80;99.90
26595;DHT22;14238;49.496;8.154;2023-06-01T00:10:32;16.80;99.90
26595;DHT22;14238;49.496;8.154;2023-06-01T00:12:58;16.80;99.90
26595;DHT22;14238;49.496;8.154;2023-06-01T00:15:23;16.80;99.90
26595;DHT22;14238;49.496;8.154;2023-06-01T00:17:49;16.70;99.90
26595;DHT22;14238;49.496;8.154;2023-06-01T00:20:17;16.70;99.90
26595;DHT22;14238;49.496;8.154;2023-06-01T00:22:43;16.70;99.90
26595;DHT22;14238;49.496;8.154;2023-06-01T00:25:09;16.70;99.90
26595;DHT22;14238;49.496;8.154;2023-06-01T00:27:35;16.60;99.90
26595;DHT22;14238;49.496;8.154;2023-06-01T00:30:00;16.50;99.90
26595;DHT22;14238;49.496;8.154;2023-06-01T00:32:26;16.50;99.90
26595;DHT22;14238;49.496;8.154;2023-06-01T00:34:51;16.50;99.90
26595;DHT22;14238;49.496;8.154;2023-06-01T00:37:17;16.50;99.90
26595;DHT22;14238;49.496;8.154;2023-06-01T00:39:42;16.40;99.90
26595;DHT22;14238;49.496;8.154;2023-06-01T00:42:08;16.40;99.90
26595;DHT22;14238;49.496;8.154;2023-06-01T00:44:34;16.30;99.90
26595;DHT22;14238;49.496;8.154;2023-06-01T00:47:00;16.30;99.90
26595;DHT22;14238;49.496;8.154;2023-06-01T00:49:26;16.30;99.90
26595;DHT22;14238;49.496;8.154;2023-06-01T00:51:52;16.20;99.90
26595;DHT22;14238;49.496;8.154;2023-06-01T00:54:18;16.20;99.90
26595;DHT22;14238;49.496;8.154;2023-06-01T00:56:44;16.10;99.90
26595;DHT22;14238;49.496;8.154;2023-06-01T00:59:09;16.00;99.90
26595;DHT22;14238;49.496;8.154;2023-06-01T01:01:36;16.00;99.90
26595;DHT22;14238;49.496;8.154;2023-06-01T01:04:02;16.00;99.90
26595;DHT22;14238;49.496;8.154;2023-06-01T01:06:55;16.00;99.90
26595;DHT22;14238;49.496;8.154;2023-06-01T01:09:44;15.90;99.90
26595;DHT22;14238;49.496;8.154;2023-06-01T01:12:21;15.80;99.90
26595;DHT22;14238;49.496;8.154;2023-06-01T01:15:01;15.90;99.90
26595;DHT22;14238;49.496;8.154;2023-06-01T01:17:40;15.90;99.90
26595;DHT22;14238;49.496;8.154;2023-06-01T01:20:14;15.90;99.90
26595;DHT22;14238;49.496;8.154;2023-06-01T01:26:08;15.70;99.90
26595;DHT22;14238;49.496;8.154;2023-06-01T01:28:46;15.80;99.90
26595;DHT22;14238;49.496;8.154;2023-06-01T01:31:13;15.70;99.90
26595;DHT22;14238;49.496;8.154;2023-06-01T01:33:41;15.70;99.90
26595;DHT22;14238;49.496;8.154;2023-06-01T01:36:07;15.60;99.90
26595;DHT22;14238;49.496;8.154;2023-06-01T01:38:34;15.60;99.90
26595;DHT22;14238;49.496;8.154;2023-06-01T01:41:01;15.60;99.90
26595;DHT22;14238;49.496;8.154;2023-06-01T01:43:26;15.50;99.90
26595;DHT22;14238;49.496;8.154;2023-06-01T01:46:21;15.50;99.90
26595;DHT22;14238;49.496;8.154;2023-06-01T01:52:05;15.60;99.90
26595;DHT22;14238;49.496;8.154;2023-06-01T01:54:37;15.60;99.90
26595;DHT22;14238;49.496;8.154;2023-06-01T01:57:08;15.50;99.90
26595;DHT22;14238;49.496;8.154;2023-06-01T01:59:35;15.50;99.90
26595;DHT22;14238;49.496;8.154;2023-06-01T02:02:01;15.50;99.90
26595;DHT22;14238;49.496;8.154;2023-06-01T02:04:28;15.60;99.90
26595;DHT22;14238;49.496;8.154;2023-06-01T02:06:53;15.50;99.90
26595;DHT22;14238;49.496;8.154;2023-06-01T02:09:19;15.50;99.90
26595;DHT22;14238;49.496;8.154;2023-06-01T02:11:45;15.50;99.90
26595;DHT22;14238;49.496;8.154;2023-06-01T02:14:10;15.50;99.90
26595;DHT22;14238;49.496;8.154;2023-06-01T02:16:36;15.40;99.90
26595;DHT22;14238;49.496;8.154;2023-06-01T02:19:02;15.40;99.90
26595;DHT22;14238;49.496;8.154;2023-06-01T02:21:28;15.30;99.90
26595;DHT22;14238;49.496;8.154;2023-06-01T02:23:54;15.30;99.90
26595;DHT22;14238;49.496;8.154;2023-06-01T02:26:19;15.30;99.90
26595;DHT22;14238;49.496;8.154;2023-06-01T02:28:45;15.30;99.90
26595;DHT22;14238;49.496;8.154;2023-06-01T02:31:11;15.30;99.90
26595;DHT22;14238;49.496;8.154;2023-06-01T02:33:38;15.20;99.90
26595;DHT22;14238;49.496;8.154;2023-06-01T02:36:03;15.20;99.90
26595;DHT22;14238;49.496;8.154;2023-06-01T02:38:30;15.20;99.90
26595;DHT22;14238;49.496;8.154;2023-06-01T02:40:55;15.10;99.90
26595;DHT22;14238;49.496;8.154;2023-06-01T02:43:21;15.10;99.90
26595;DHT22;14238;49.496;8.154;2023-06-01T02:45:47;15.10;99.90
26595;DHT22;14238;49.496;8.154;2023-06-01T02:48:12;15.10;99.90
26595;DHT22;14238;49.496;8.154;2023-06-01T02:50:38;15.20;99.90
26595;DHT22;14238;49.496;8.154;2023-06-01T02:53:04;15.30;99.90
26595;DHT22;14238;49.496;8.154;2023-06-01T02:55:30;15.20;99.90
26595;DHT22;14238;49.496;8.154;2023-06-01T02:57:55;15.20;99.90
26595;DHT22;14238;49.496;8.154;2023-06-01T03:00:21;15.10;99.90
26595;DHT22;14238;49.496;8.154;2023-06-01T03:02:47;15.10;99.90
26595;DHT22;14238;49.496;8.154;2023-06-01T03:05:13;15.10;99.90
26595;DHT22;14238;49.496;8.154;2023-06-01T03:07:43;15.20;99.90
26595;DHT22;14238;49.496;8.154;2023-06-01T03:10:10;15.10;99.90
26595;DHT22;14238;49.496;8.154;2023-06-01T03:12:36;15.10;99.90
26595;DHT22;14238;49.496;8.154;2023-06-01T03:15:02;15.20;99.90
26595;DHT22;14238;49.496;8.154;2023-06-01T03:17:28;15.10;99.90
26595;DHT22;14238;49.496;8.154;2023-06-01T03:19:53;15.10;99.90
26595;DHT22;14238;49.496;8.154;2023-06-01T03:22:19;15.20;99.90
26595;DHT22;14238;49.496;8.154;2023-06-01T03:24:44;15.20;99.90
26595;DHT22;14238;49.496;8.154;2023-06-01T03:27:15;15.10;99.90
26595;DHT22;14238;49.496;8.154;2023-06-01T03:29:41;15.00;99.90
26595;DHT22;14238;49.496;8.154;2023-06-01T03:32:07;15.00;99.90
26595;DHT22;14238;49.496;8.154;2023-06-01T03:34:33;15.00;99.90
26595;DHT22;14238;49.496;8.154;2023-06-01T03:37:05;15.10;99.90
26595;DHT22;14238;49.496;8.154;2023-06-01T03:39:31;15.20;99.90
26595;DHT22;14238;49.496;8.154;2023-06-01T03:42:01;15.30;99.90
26595;DHT22;14238;49.496;8.154;2023-06-01T03:44:27;15.30;99.90
26595;DHT22;14238;49.496;8.154;2023-06-01T03:46:52;15.40;99.90
26595;DHT22;14238;49.496;8.154;2023-06-01T03:49:18;15.50;99.90
26595;DHT22;14238;49.496;8.154;2023-06-01T03:51:44;15.50;99.90
26595;DHT22;14238;49.496;8.154;2023-06-01T03:54:10;15.50;99.90
26595;DHT22;14238;49.496;8.154;2023-06-01T03:56:36;15.50;99.90
26595;DHT22;14238;49.496;8.154;2023-06-01T03:59:01;15.60;99.90
26595;DHT22;14238;49.496;8.154;2023-06-01T04:01:27;15.60;99.90
26595;DHT22;14238;49.496;8.154;2023-06-01T04:03:56;15.60;99.90
26595;DHT22;14238;49.496;8.154;2023-06-01T04:06:22;15.60;99.90
26595;DHT22;14238;49.496;8.154;2023-06-01T04:08:50;15.60;99.90
26595;DHT22;14238;49.496;8.154;2023-06-01T04:11:16;15.60;99.90
26595;DHT22;14238;49.496;8.154;2023-06-01T04:13:42;15.60;99.90
26595;DHT22;14238;49.496;8.154;2023-06-01T04:16:09;15.70;99.90
26595;DHT22;14238;49.496;8.154;2023-06-01T04:18:34;15.70;99.90
26595;DHT22;14238;49.496;8.154;2023-06-01T04:21:00;15.80;99.90
26595;DHT22;14238;49.496;8.154;2023-06-01T04:23:26;15.80;99.90
26595;DHT22;14238;49.496;8.154;2023-06-01T04:25:51;15.80;99.90
26595;DHT22;14238;49.496;8.154;2023-06-01T04:28:17;15.90;99.90
26595;DHT22;14238;49.496;8.154;2023-06-01T04:30:43;15.90;99.90
26595;DHT22;14238;49.496;8.154;2023-06-01T04:33:13;15.90;99.90
26595;DHT22;14238;49.496;8.154;2023-06-01T04:35:39;15.90;99.90
26595;DHT22;14238;49.496;8.154;2023-06-01T04:38:04;16.00;99.90
26595;DHT22;14238;49.496;8.154;2023-06-01T04:40:30;16.00;99.90
26595;DHT22;14238;49.496;8.154;2023-06-01T04:42:55;16.10;99.90
26595;DHT22;14238;49.496;8.154;2023-06-01T04:45:23;16.10;99.90
26595;DHT22;14238;49.496;8.154;2023-06-01T04:47:48;16.10;99.90
26595;DHT22;14238;49.496;8.154;2023-06-01T04:50:15;16.20;99.90
26595;DHT22;14238;49.496;8.154;2023-06-01T04:52:42;16.20;99.90
26595;DHT22;14238;49.496;8.154;2023-06-01T04:55:09;16.30;99.90
26595;DHT22;14238;49.496;8.154;2023-06-01T04:57:35;16.40;99.90
26595;DHT22;14238;49.496;8.154;2023-06-01T05:00:05;16.40;99.90
26595;DHT22;14238;49.496;8.154;2023-06-01T05:02:35;16.40;99.90
26595;DHT22;14238;49.496;8.154;2023-06-01T05:05:01;16.40;99.90
26595;DHT22;14238;49.496;8.154;2023-06-01T05:07:26;16.40;99.90
26595;DHT22;14238;49.496;8.154;2023-06-01T05:09:52;16.50;99.90
26595;DHT22;14238;49.496;8.154;2023-06-01T05:12:17;16.50;99.90
26595;DHT22;14238;49.496;8.154;2023-06-01T05:14:43;16.60;99.90
26595;DHT22;14238;49.496;8.154;2023-06-01T05:17:08;16.70;99.90
26595;DHT22;14238;49.496;8.154;2023-06-01T05:19:34;16.60;99.90
26595;DHT22;14238;49.496;8.154;2023-06-01T05:21:59;16.70;99.90
26595;DHT22;14238;49.496;8.154;2023-06-01T05:24:25;16.70;99.90
26595;DHT22;14238;49.496;8.154;2023-06-01T05:26:51;16.70;99.90
26595;DHT22;14238;49.496;8.154;2023-06-01T05:29:17;16.80;99.90
26595;DHT22;14238;49.496;8.154;2023-06-01T05:31:42;16.80;99.90
26595;DHT22;14238;49.496;8.154;2023-06-01T05:34:08;16.80;99.90
26595;DHT22;14238;49.496;8.154;2023-06-01T05:36:33;16.90;99.90
26595;DHT22;14238;49.496;8.154;2023-06-01T05:38:59;16.90;99.90
26595;DHT22;14238;49.496;8.154;2023-06-01T05:41:25;16.90;99.90
26595;DHT22;14238;49.496;8.154;2023-06-01T05:43:51;17.00;99.90
26595;DHT22;14238;49.496;8.154;2023-06-01T05:46:17;17.00;99.90
26595;DHT22;14238;49.496;8.154;2023-06-01T05:48:43;17.10;99.90
26595;DHT22;14238;49.496;8.154;2023-06-01T05:51:08;17.10;99.90
26595;DHT22;14238;49.496;8.154;2023-06-01T05:53:34;17.10;99.90
26595;DHT22;14238;49.496;8.154;2023-06-01T05:55:59;17.10;99.90
26595;DHT22;14238;49.496;8.154;2023-06-01T05:58:25;17.10;99.90
26595;DHT22;14238;49.496;8.154;2023-06-01T06:00:50;17.20;99.90
26595;DHT22;14238;49.496;8.154;2023-06-01T06:03:16;17.30;99.90
26595;DHT22;14238;49.496;8.154;2023-06-01T06:05:42;17.30;99.90
26595;DHT22;14238;49.496;8.154;2023-06-01T06:08:07;17.30;99.90
26595;DHT22;14238;49.496;8.154;2023-06-01T06:10:33;17.40;99.90
26595;DHT22;14238;49.496;8.154;2023-06-01T06:12:58;17.40;99.90
26595;DHT22;14238;49.496;8.154;2023-06-01T06:15:24;17.40;99.90
26595;DHT22;14238;49.496;8.154;2023-06-01T06:17:49;17.50;99.90
26595;DHT22;14238;49.496;8.154;2023-06-01T06:20:15;17.50;99.90
26595;DHT22;14238;49.496;8.154;2023-06-01T06:22:42;17.50;99.90
26595;DHT22;14238;49.496;8.154;2023-06-01T06:25:08;17.60;99.90
26595;DHT22;14238;49.496;8.154;2023-06-01T06:27:34;17.60;99.90
26595;DHT22;14238;49.496;8.154;2023-06-01T06:30:00;17.60;99.90
26595;DHT22;14238;49.496;8.154;2023-06-01T06:32:25;17.70;99.90
26595;DHT22;14238;49.496;8.154;2023-06-01T06:34:51;17.80;99.90
26595;DHT22;14238;49.496;8.154;2023-06-01T06:37:16;17.90;99.90
26595;DHT22;14238;49.496;8.154;2023-06-01T06:39:43;17.90;99.90
26595;DHT22;14238;49.496;8.154;2023-06-01T06:42:10;18.00;99.90
26595;DHT22;14238;49.496;8.154;2023-06-01T06:44:35;18.00;99.90
26595;DHT22;14238;49.496;8.154;2023-06-01T06:47:01;18.00;99.90
26595;DHT22;14238;49.496;8.154;2023-06-01T06:49:27;18.10;99.90
26595;DHT22;14238;49.496;8.154;2023-06-01T06:51:52;18.20;99.90
26595;DHT22;14238;49.496;8.154;2023-06-01T06:54:18;18.20;99.90
26595;DHT22;14238;49.496;8.154;2023-06-01T06:56:43;18.30;99.90
26595;DHT22;14238;49.496;8.154;2023-06-01T06:59:10;18.30;99.90
26595;DHT22;14238;49.496;8.154;2023-06-01T07:01:35;18.40;99.90
26595;DHT22;14238;49.496;8.154;2023-06-01T07:04:04;18.50;99.90
26595;DHT22;14238;49.496;8.154;2023-06-01T07:06:33;18.60;99.90
26595;DHT22;14238;49.496;8.154;2023-06-01T07:08:59;18.60;99.90
26595;DHT22;14238;49.496;8.154;2023-06-01T07:11:26;18.70;99.90
26595;DHT22;14238;49.496;8.154;2023-06-01T07:13:52;18.80;99.90
26595;DHT22;14238;49.496;8.154;2023-06-01T07:16:18;18.80;99.90
26595;DHT22;14238;49.496;8.154;2023-06-01T07:18:43;18.80;99.90
26595;DHT22;14238;49.496;8.154;2023-06-01T07:21:09;19.00;99.90
26595;DHT22;14238;49.496;8.154;2023-06-01T07:23:34;19.10;99.90
26595;DHT22;14238;49.496;8.154;2023-06-01T07:26:01;19.20;99.90
26595;DHT22;14238;49.496;8.154;2023-06-01T07:28:26;19.40;99.90
26595;DHT22;14238;49.496;8.154;2023-06-01T07:30:53;19.40;99.90
26595;DHT22;14238;49.496;8.154;2023-06-01T07:33:18;19.50;99.90
26595;DHT22;14238;49.496;8.154;2023-06-01T07:35:44;19.50;99.90
26595;DHT22;14238;49.496;8.154;2023-06-01T07:38:11;19.60;99.90
26595;DHT22;14238;49.496;8.154;2023-06-01T07:40:37;19.70;99.90
26595;DHT22;14238;49.496;8.154;2023-06-01T07:43:02;19.70;99.90
26595;DHT22;14238;49.496;8.154;2023-06-01T07:45:28;19.80;99.90
26595;DHT22;14238;49.496;8.154;2023-06-01T07:47:53;19.80;99.90
26595;DHT22;14238;49.496;8.154;2023-06-01T07:50:19;19.90;99.90
26595;DHT22;14238;49.496;8.154;2023-06-01T07:52:45;20.00;99.90
26595;DHT22;14238;49.496;8.154;2023-06-01T07:55:10;20.00;99.90
26595;DHT22;14238;49.496;8.154;2023-06-01T07:57:36;20.10;99.90
26595;DHT22;14238;49.496;8.154;2023-06-01T08:00:03;20.20;99.90
26595;DHT22;14238;49.496;8.154;2023-06-01T08:02:33;20.40;99.90
26595;DHT22;14238;49.496;8.154;2023-06-01T08:04:58;20.50;99.90
26595;DHT22;14238;49.496;8.154;2023-06-01T08:07:27;20.60;99.90
26595;DHT22;14238;49.496;8.154;2023-06-01T08:09:55;20.70;99.90
26595;DHT22;14238;49.496;8.154;2023-06-01T08:12:21;20.70;99.90
26595;DHT22;14238;49.496;8.154;2023-06-01T08:14:46;20.80;99.90
26595;DHT22;14238;49.496;8.154;2023-06-01T08:17:12;21.00;99.90
26595;DHT22;14238;49.496;8.154;2023-06-01T08:19:39;21.30;99.90
26595;DHT22;14238;49.496;8.154;2023-06-01T08:22:07;21.40;99.60
26595;DHT22;14238;49.496;8.154;2023-06-01T08:24:32;21.30;99.00
26595;DHT22;14238;49.496;8.154;2023-06-01T08:26:58;21.50;99.90
26595;DHT22;14238;49.496;8.154;2023-06-01T08:29:24;21.50;99.60
26595;DHT22;14238;49.496;8.154;2023-06-01T08:31:50;21.70;99.30
26595;DHT22;14238;49.496;8.154;2023-06-01T08:34:15;21.80;99.70
26595;DHT22;14238;49.496;8.154;2023-06-01T08:36:41;21.90;99.00
26595;DHT22;14238;49.496;8.154;2023-06-01T08:39:23;22.10;99.20
26595;DHT22;14238;49.496;8.154;2023-06-01T08:41:58;22.20;98.60
26595;DHT22;14238;49.496;8.154;2023-06-01T08:44:27;22.30;99.30
26595;DHT22;14238;49.496;8.154;2023-06-01T08:46:54;22.50;98.40
26595;DHT22;14238;49.496;8.154;2023-06-01T08:49:21;22.60;97.10
26595;DHT22;14238;49.496;8.154;2023-06-01T08:51:49;22.80;97.90
26595;DHT22;14238;49.496;8.154;2023-06-01T08:54:16;22.70;98.20
26595;DHT22;14238;49.496;8.154;2023-06-01T08:56:42;22.90;98.20
26595;DHT22;14238;49.496;8.154;2023-06-01T08:59:11;22.80;97.40
26595;DHT22;14238;49.496;8.154;2023-06-01T09:01:37;22.90;97.90
26595;DHT22;14238;49.496;8.154;2023-06-01T09:04:03;23.20;97.70
26595;DHT22;14238;49.496;8.154;2023-06-01T09:06:29;23.30;97.10
26595;DHT22;14238;49.496;8.154;2023-06-01T09:08:55;23.60;98.10
26595;DHT22;14238;49.496;8.154;2023-06-01T09:11:21;23.70;97.90
26595;DHT22;14238;49.496;8.154;2023-06-01T09:13:46;23.60;96.80
26595;DHT22;14238;49.496;8.154;2023-06-01T09:16:12;23.70;96.50
26595;DHT22;14238;49.496;8.154;2023-06-01T09:18:51;23.80;96.90
26595;DHT22;14238;49.496;8.154;2023-06-01T09:21:17;23.80;96.80
26595;DHT22;14238;49.496;8.154;2023-06-01T09:23:42;24.10;95.50
26595;DHT22;14238;49.496;8.154;2023-06-01T09:26:10;24.10;96.00
26595;DHT22;14238;49.496;8.154;2023-06-01T09:31:43;24.10;96.70
26595;DHT22;14238;49.496;8.154;2023-06-01T09:34:12;24.00;95.60
26595;DHT22;14238;49.496;8.154;2023-06-01T09:36:41;23.90;94.60
26595;DHT22;14238;49.496;8.154;2023-06-01T09:39:17;24.00;95.10
26595;DHT22;14238;49.496;8.154;2023-06-01T09:41:56;24.10;95.50
26595;DHT22;14238;49.496;8.154;2023-06-01T09:44:33;24.30;95.00
26595;DHT22;14238;49.496;8.154;2023-06-01T09:47:11;24.20;95.50
26595;DHT22;14238;49.496;8.154;2023-06-01T09:49:43;24.40;95.70
26595;DHT22;14238;49.496;8.154;2023-06-01T09:54:45;24.80;95.00
26595;DHT22;14238;49.496;8.154;2023-06-01T09:57:11;24.80;93.30
26595;DHT22;14238;49.496;8.154;2023-06-01T09:59:45;24.80;92.80
26595;DHT22;14238;49.496;8.154;2023-06-01T10:04:40;25.00;93.90
26595;DHT22;14238;49.496;8.154;2023-06-01T10:07:07;25.00;92.90
26595;DHT22;14238;49.496;8.154;2023-06-01T10:09:35;24.90;93.50
26595;DHT22;14238;49.496;8.154;2023-06-01T10:12:04;24.90;93.50
26595;DHT22;14238;49.496;8.154;2023-06-01T10:14:30;25.00;94.40
26595;DHT22;14238;49.496;8.154;2023-06-01T10:16:57;25.70;93.70
26595;DHT22;14238;49.496;8.154;2023-06-01T10:19:23;25.70;92.90
26595;DHT22;14238;49.496;8.154;2023-06-01T10:21:49;25.50;91.60
26595;DHT22;14238;49.496;8.154;2023-06-01T10:24:17;25.80;93.00
26595;DHT22;14238;49.496;8.154;2023-06-01T10:26:51;26.00;93.60
26595;DHT22;14238;49.496;8.154;2023-06-01T10:29:18;26.10;92.20
26595;DHT22;14238;49.496;8.154;2023-06-01T10:31:44;25.90;92.50
26595;DHT22;14238;49.496;8.154;2023-06-01T10:34:11;26.10;91.40
26595;DHT22;14238;49.496;8.154;2023-06-01T10:39:26;26.30;90.40
26595;DHT22;14238;49.496;8.154;2023-06-01T10:41:52;26.10;90.20
26595;DHT22;14238;49.496;8.154;2023-06-01T10:47:06;26.40;90.00
26595;DHT22;14238;49.496;8.154;2023-06-01T10:52:28;26.80;91.10
26595;DHT22;14238;49.496;8.154;2023-06-01T10:54:56;27.00;88.60
26595;DHT22;14238;49.496;8.154;2023-06-01T10:57:42;27.00;87.80
26595;DHT22;14238;49.496;8.154;2023-06-01T11:08:02;26.70;87.40
26595;DHT22;14238;49.496;8.154;2023-06-01T11:13:29;27.50;85.50
26595;DHT22;14238;49.496;8.154;2023-06-01T11:18:43;27.10;86.20
26595;DHT22;14238;49.496;8.154;2023-06-01T11:21:09;27.10;84.20
26595;DHT22;14238;49.496;8.154;2023-06-01T11:23:37;27.40;83.40
26595;DHT22;14238;49.496;8.154;2023-06-01T11:26:06;27.50;83.90
26595;DHT22;14238;49.496;8.154;2023-06-01T11:28:31;27.80;85.40
26595;DHT22;14238;49.496;8.154;2023-06-01T11:30:59;27.80;79.60
26595;DHT22;14238;49.496;8.154;2023-06-01T11:33:28;27.60;81.20
26595;DHT22;14238;49.496;8.154;2023-06-01T11:35:58;27.90;83.50
26595;DHT22;14238;49.496;8.154;2023-06-01T11:38:24;28.40;82.40
26595;DHT22;14238;49.496;8.154;2023-06-01T11:41:00;28.90;81.60
26595;DHT22;14238;49.496;8.154;2023-06-01T11:43:27;28.60;77.90
26595;DHT22;14238;49.496;8.154;2023-06-01T11:46:03;28.20;80.00
26595;DHT22;14238;49.496;8.154;2023-06-01T11:48:29;27.60;78.80
26595;DHT22;14238;49.496;8.154;2023-06-01T11:50:55;28.10;80.10
26595;DHT22;14238;49.496;8.154;2023-06-01T11:53:22;28.50;80.30
26595;DHT22;14238;49.496;8.154;2023-06-01T11:55:53;28.10;80.60
26595;DHT22;14238;49.496;8.154;2023-06-01T11:58:26;27.80;78.70
26595;DHT22;14238;49.496;8.154;2023-06-01T12:00:53;27.70;77.20
26595;DHT22;14238;49.496;8.154;2023-06-01T12:03:19;27.90;77.50
26595;DHT22;14238;49.496;8.154;2023-06-01T12:05:46;28.60;78.60
26595;DHT22;14238;49.496;8.154;2023-06-01T12:08:23;29.00;76.50
26595;DHT22;14238;49.496;8.154;2023-06-01T12:10:50;28.50;75.10
26595;DHT22;14238;49.496;8.154;2023-06-01T12:13:18;28.90;74.40
26595;DHT22;14238;49.496;8.154;2023-06-01T12:15:45;28.80;75.40
26595;DHT22;14238;49.496;8.154;2023-06-01T12:18:11;29.00;72.40
26595;DHT22;14238;49.496;8.154;2023-06-01T12:20:42;29.00;72.30
26595;DHT22;14238;49.496;8.154;2023-06-01T12:25:57;28.40;72.80
26595;DHT22;14238;49.496;8.154;2023-06-01T12:28:25;28.90;75.20
26595;DHT22;14238;49.496;8.154;2023-06-01T12:31:14;29.30;76.10
26595;DHT22;14238;49.496;8.154;2023-06-01T12:33:41;29.50;71.00
26595;DHT22;14238;49.496;8.154;2023-06-01T12:36:07;29.50;71.40
26595;DHT22;14238;49.496;8.154;2023-06-01T12:38:54;28.90;73.20
26595;DHT22;14238;49.496;8.154;2023-06-01T12:41:20;29.00;71.60
26595;DHT22;14238;49.496;8.154;2023-06-01T12:43:50;29.00;73.00
26595;DHT22;14238;49.496;8.154;2023-06-01T12:46:27;28.30;66.20
26595;DHT22;14238;49.496;8.154;2023-06-01T12:49:14;28.70;71.90
26595;DHT22;14238;49.496;8.154;2023-06-01T12:51:41;29.50;69.70
26595;DHT22;14238;49.496;8.154;2023-06-01T12:54:07;29.20;70.80
26595;DHT22;14238;49.496;8.154;2023-06-01T12:56:32;28.90;73.40
26595;DHT22;14238;49.496;8.154;2023-06-01T12:58:58;29.20;73.10
26595;DHT22;14238;49.496;8.154;2023-06-01T13:01:23;29.00;69.40
26595;DHT22;14238;49.496;8.154;2023-06-01T13:03:49;28.80;70.50
26595;DHT22;14238;49.496;8.154;2023-06-01T13:06:17;29.10;72.90
26595;DHT22;14238;49.496;8.154;2023-06-01T13:08:43;29.50;71.00
26595;DHT22;14238;49.496;8.154;2023-06-01T13:11:08;29.30;70.70
26595;DHT22;14238;49.496;8.154;2023-06-01T13:13:34;29.20;70.50
26595;DHT22;14238;49.496;8.154;2023-06-01T13:16:00;29.70;71.40
26595;DHT22;14238;49.496;8.154;2023-06-01T13:18:25;29.80;67.70
26595;DHT22;14238;49.496;8.154;2023-06-01T13:20:51;29.30;68.50
26595;DHT22;14238;49.496;8.154;2023-06-01T13:23:17;29.00;66.00
26595;DHT22;14238;49.496;8.154;2023-06-01T13:25:43;29.30;69.60
26595;DHT22;14238;49.496;8.154;2023-06-01T13:28:09;29.90;69.70
26595;DHT22;14238;49.496;8.154;2023-06-01T13:30:35;29.20;67.20
26595;DHT22;14238;49.496;8.154;2023-06-01T13:33:01;29.80;66.30
26595;DHT22;14238;49.496;8.154;2023-06-01T13:35:27;30.10;67.50
26595;DHT22;14238;49.496;8.154;2023-06-01T13:37:53;30.00;64.50
26595;DHT22;14238;49.496;8.154;2023-06-01T13:40:18;29.50;66.60
26595;DHT22;14238;49.496;8.154;2023-06-01T13:42:48;29.60;68.20
26595;DHT22;14238;49.496;8.154;2023-06-01T13:45:14;29.80;69.30
26595;DHT22;14238;49.496;8.154;2023-06-01T13:47:40;30.00;65.40
26595;DHT22;14238;49.496;8.154;2023-06-01T13:50:06;30.10;66.70
26595;DHT22;14238;49.496;8.154;2023-06-01T13:52:33;30.30;67.80
26595;DHT22;14238;49.496;8.154;2023-06-01T13:54:59;29.90;65.10
26595;DHT22;14238;49.496;8.154;2023-06-01T13:57:24;29.80;66.00
26595;DHT22;14238;49.496;8.154;2023-06-01T13:59:50;29.40;67.80
26595;DHT22;14238;49.496;8.154;2023-06-01T14:02:15;29.90;66.40
26595;DHT22;14238;49.496;8.154;2023-06-01T14:04:41;30.20;64.10
26595;DHT22;14238;49.496;8.154;2023-06-01T14:07:06;30.20;60.50
26595;DHT22;14238;49.496;8.154;2023-06-01T14:09:32;30.80;62.80
26595;DHT22;14238;49.496;8.154;2023-06-01T14:11:57;31.20;62.40
26595;DHT22;14238;49.496;8.154;2023-06-01T14:14:23;30.60;62.40
26595;DHT22;14238;49.496;8.154;2023-06-01T14:16:49;29.80;64.50
26595;DHT22;14238;49.496;8.154;2023-06-01T14:19:14;29.50;65.10
26595;DHT22;14238;49.496;8.154;2023-06-01T14:21:40;29.60;64.10
26595;DHT22;14238;49.496;8.154;2023-06-01T14:24:06;29.70;62.10
26595;DHT22;14238;49.496;8.154;2023-06-01T14:26:32;30.20;63.10
26595;DHT22;14238;49.496;8.154;2023-06-01T14:28:57;30.10;60.50
26595;DHT22;14238;49.496;8.154;2023-06-01T14:31:23;30.60;59.80
26595;DHT22;14238;49.496;8.154;2023-06-01T14:33:48;30.40;61.50
26595;DHT22;14238;49.496;8.154;2023-06-01T14:36:14;29.80;62.20
26595;DHT22;14238;49.496;8.154;2023-06-01T14:38:40;29.70;61.70
26595;DHT22;14238;49.496;8.154;2023-06-01T14:41:06;29.40;62.90
26595;DHT22;14238;49.496;8.154;2023-06-01T14:43:32;29.60;61.70
26595;DHT22;14238;49.496;8.154;2023-06-01T14:45:58;29.60;62.20
26595;DHT22;14238;49.496;8.154;2023-06-01T14:48:23;29.50;65.20
26595;DHT22;14238;49.496;8.154;2023-06-01T14:50:49;29.50;61.30
26595;DHT22;14238;49.496;8.154;2023-06-01T14:53:15;29.60;61.60
26595;DHT22;14238;49.496;8.154;2023-06-01T14:55:41;29.70;63.30
26595;DHT22;14238;49.496;8.154;2023-06-01T14:58:07;29.80;61.90
26595;DHT22;14238;49.496;8.154;2023-06-01T15:00:33;29.90;61.20
26595;DHT22;14238;49.496;8.154;2023-06-01T15:03:00;29.60;59.70
26595;DHT22;14238;49.496;8.154;2023-06-01T15:05:26;29.60;63.60
26595;DHT22;14238;49.496;8.154;2023-06-01T15:07:52;29.50;60.00
26595;DHT22;14238;49.496;8.154;2023-06-01T15:10:17;29.60;62.40
26595;DHT22;14238;49.496;8.154;2023-06-01T15:12:43;29.60;59.90
26595;DHT22;14238;49.496;8.154;2023-06-01T15:15:09;29.40;61.20
26595;DHT22;14238;49.496;8.154;2023-06-01T15:17:34;29.40;64.00
26595;DHT22;14238;49.496;8.154;2023-06-01T15:20:00;29.40;64.50
26595;DHT22;14238;49.496;8.154;2023-06-01T15:22:25;29.60;65.60
26595;DHT22;14238;49.496;8.154;2023-06-01T15:24:51;29.80;62.70
26595;DHT22;14238;49.496;8.154;2023-06-01T15:27:17;29.40;62.90
26595;DHT22;14238;49.496;8.154;2023-06-01T15:29:43;29.80;65.60
26595;DHT22;14238;49.496;8.154;2023-06-01T15:32:08;30.10;64.80
26595;DHT22;14238;49.496;8.154;2023-06-01T15:34:34;29.70;64.00
26595;DHT22;14238;49.496;8.154;2023-06-01T15:37:00;29.40;62.60
26595;DHT22;14238;49.496;8.154;2023-06-01T15:39:25;29.20;62.80
26595;DHT22;14238;49.496;8.154;2023-06-01T15:41:51;29.80;63.90
26595;DHT22;14238;49.496;8.154;2023-06-01T15:44:16;29.30;65.40
26595;DHT22;14238;49.496;8.154;2023-06-01T15:46:44;29.60;62.20
26595;DHT22;14238;49.496;8.154;2023-06-01T15:49:10;29.60;65.50
26595;DHT22;14238;49.496;8.154;2023-06-01T15:51:36;29.40;63.10
26595;DHT22;14238;49.496;8.154;2023-06-01T15:54:02;29.30;62.60
26595;DHT22;14238;49.496;8.154;2023-06-01T15:56:27;29.20;63.90
26595;DHT22;14238;49.496;8.154;2023-06-01T15:58:53;29.20;63.30
26595;DHT22;14238;49.496;8.154;2023-06-01T16:01:19;29.00;60.80
26595;DHT22;14238;49.496;8.154;2023-06-01T16:03:44;29.00;61.10
26595;DHT22;14238;49.496;8.154;2023-06-01T16:06:10;29.00;62.00
26595;DHT22;14238;49.496;8.154;2023-06-01T16:08:36;29.00;61.80